| time (UTC) | temp F | wind direction | speed knots | gust knots | rain 1hr in | rain 24hr in | rain mn in | humidity % | barometer mb |
| 20260508200009 | 80 | 175 | 3.5 | 12.2 | 0.00 | 0.00 | 0.00 | 16 | 1018.7 |
| 20260508195547 | 80 | 265 | 6.1 | 9.6 | 0.00 | 0.00 | 0.00 | 16 | 1018.8 |
| 20260508195009 | 78 | 271 | 7.0 | 14.8 | 0.00 | 0.00 | 0.00 | 17 | 1018.7 |
| 20260508194546 | 78 | 207 | 12.2 | 18.2 | 0.00 | 0.00 | 0.00 | 17 | 1018.9 |
| 20260508194047 | 79 | 190 | 8.7 | 13.0 | 0.00 | 0.00 | 0.00 | 17 | 1018.9 |
| 20260508193546 | 80 | 218 | 8.7 | 11.3 | 0.00 | 0.00 | 0.00 | 16 | 1018.9 |
| 20260508193009 | 79 | 345 | 1.7 | 6.1 | 0.00 | 0.00 | 0.00 | 15 | 1018.8 |
| 20260508192546 | 78 | 256 | 12.2 | 18.2 | 0.00 | 0.00 | 0.00 | 16 | 1019.0 |
| 20260508192046 | 79 | 211 | 12.2 | 14.8 | 0.00 | 0.00 | 0.00 | 16 | 1018.9 |
| 20260508191509 | 78 | 186 | 5.2 | 12.2 | 0.00 | 0.00 | 0.00 | 17 | 1018.9 |
| 20260508191009 | 78 | 239 | 8.7 | 15.6 | 0.00 | 0.00 | 0.00 | 17 | 1019.2 |
| 20260508190547 | 78 | 239 | 13.0 | 14.8 | 0.00 | 0.00 | 0.00 | 17 | 1019.3 |
| 20260508190009 | 79 | 199 | 4.3 | 7.0 | 0.00 | 0.00 | 0.00 | 16 | 1019.0 |
| 20260508185547 | 79 | 201 | 10.4 | 12.2 | 0.00 | 0.00 | 0.00 | 17 | 1019.3 |
| 20260508185047 | 77 | 300 | 12.2 | 15.6 | 0.00 | 0.00 | 0.00 | 17 | 1019.4 |
| 20260508184547 | 78 | 267 | 10.4 | 13.0 | 0.00 | 0.00 | 0.00 | 16 | 1019.4 |
| 20260508184009 | 78 | 284 | 4.3 | 10.4 | 0.00 | 0.00 | 0.00 | 17 | 1019.2 |
| 20260508183546 | 78 | 148 | 2.6 | 4.3 | 0.00 | 0.00 | 0.00 | 16 | 1019.3 |
| 20260508183046 | 76 | 189 | 8.7 | 15.6 | 0.00 | 0.00 | 0.00 | 17 | 1019.5 |
| 20260508182509 | 77 | 253 | 12.2 | 17.4 | 0.00 | 0.00 | 0.00 | 16 | 1019.3 |
| 20260508182008 | 79 | 298 | 2.6 | 6.1 | 0.00 | 0.00 | 0.00 | 16 | 1019.5 |
| 20260508181547 | 78 | 251 | 3.5 | 13.0 | 0.00 | 0.00 | 0.00 | 16 | 1019.6 |
| 20260508181008 | 76 | 317 | 9.6 | 10.4 | 0.00 | 0.00 | 0.00 | 17 | 1019.8 |
| 20260508180546 | 78 | 296 | 8.7 | 11.3 | 0.00 | 0.00 | 0.00 | 17 | 1019.5 |
| 20260508180047 | 77 | 258 | 6.1 | 12.2 | 0.00 | 0.00 | 0.00 | 17 | 1019.4 |
| 20260508175547 | 78 | 137 | 1.7 | 5.2 | 0.00 | 0.00 | 0.00 | 16 | 1019.6 |
| 20260508175008 | 78 | 121 | 1.7 | 5.2 | 0.00 | 0.00 | 0.00 | 16 | 1019.8 |
| 20260508174547 | 76 | 311 | 5.2 | 9.6 | 0.00 | 0.00 | 0.00 | 16 | 1019.7 |
| 20260508174047 | 77 | 268 | 6.1 | 11.3 | 0.00 | 0.00 | 0.00 | 16 | 1019.7 |
| 20260508173547 | 76 | 236 | 7.8 | 8.7 | 0.00 | 0.00 | 0.00 | 17 | 1019.7 |
| 20260508173008 | 75 | 211 | 7.8 | 12.2 | 0.00 | 0.00 | 0.00 | 17 | 1019.8 |
| 20260508172547 | 76 | 269 | 7.8 | 13.0 | 0.00 | 0.00 | 0.00 | 17 | 1019.8 |
| 20260508172047 | 76 | 283 | 10.4 | 10.4 | 0.00 | 0.00 | 0.00 | 17 | 1019.8 |
| 20260508163009 | 76 | 305 | 2.6 | 7.8 | 0.00 | 0.00 | 0.00 | 17 | 1019.7 |
| 20260508162546 | 74 | 296 | 6.1 | 7.0 | 0.00 | 0.00 | 0.00 | 18 | 1019.9 |
| 20260508162047 | 74 | 275 | 4.3 | 9.6 | 0.00 | 0.00 | 0.00 | 18 | 1019.7 |
| 20260508161547 | 74 | 264 | 5.2 | 9.6 | 0.00 | 0.00 | 0.00 | 18 | 1019.8 |
| 20260508161009 | 73 | 234 | 1.7 | 8.7 | 0.00 | 0.00 | 0.00 | 18 | 1019.7 |
| 20260508160547 | 74 | 259 | 5.2 | 11.3 | 0.00 | 0.00 | 0.00 | 18 | 1019.9 |
| 20260508160047 | 73 | 240 | 7.0 | 9.6 | 0.00 | 0.00 | 0.00 | 18 | 1019.8 |
| 20260508155509 | 74 | 315 | 6.1 | 8.7 | 0.00 | 0.00 | 0.00 | 17 | 1019.7 |
| 20260508155047 | 74 | 324 | 3.5 | 7.8 | 0.00 | 0.00 | 0.00 | 18 | 1019.8 |
| 20260508154547 | 74 | 294 | 4.3 | 8.7 | 0.00 | 0.00 | 0.00 | 18 | 1019.7 |
| 20260508154048 | 73 | 290 | 6.1 | 7.8 | 0.00 | 0.00 | 0.00 | 18 | 1019.6 |
| 20260508153547 | 72 | 292 | 2.6 | 7.8 | 0.00 | 0.00 | 0.00 | 17 | 1019.7 |
| 20260508153047 | 72 | 282 | 6.1 | 10.4 | 0.00 | 0.00 | 0.00 | 18 | 1019.7 |
| 20260508152547 | 71 | 255 | 5.2 | 11.3 | 0.00 | 0.00 | 0.00 | 18 | 1019.7 |
| 20260508152008 | 71 | 285 | 4.3 | 8.7 | 0.00 | 0.00 | 0.00 | 18 | 1019.8 |
| 20260508151527 | 71 | 273 | 6.1 | 9.6 | 0.00 | 0.00 | 0.00 | 18 | 1019.7 |
| 20260508151047 | 71 | 254 | 8.7 | 9.6 | 0.00 | 0.00 | 0.00 | 17 | 1019.8 |
| 20260508150508 | 71 | 259 | 7.0 | 11.3 | 0.00 | 0.00 | 0.00 | 17 | 1019.8 |
| 20260508150008 | 70 | 267 | 4.3 | 11.3 | 0.00 | 0.00 | 0.00 | 17 | 1019.6 |
| 20260508145547 | 71 | 243 | 8.7 | 8.7 | 0.00 | 0.00 | 0.00 | 17 | 1019.6 |
| 20260508145008 | 70 | 247 | 8.7 | 9.6 | 0.00 | 0.00 | 0.00 | 17 | 1019.7 |
| 20260508144546 | 70 | 296 | 2.6 | 7.8 | 0.00 | 0.00 | 0.00 | 17 | 1019.7 |
| 20260508144047 | 69 | 212 | 2.6 | 8.7 | 0.00 | 0.00 | 0.00 | 18 | 1019.5 |
| 20260508142047 | 69 | 169 | 1.7 | 2.6 | 0.00 | 0.00 | 0.00 | 19 | 1019.6 |
| 20260508141509 | 68 | 283 | 0.0 | 1.7 | 0.00 | 0.00 | 0.00 | 23 | 1019.6 |
| 20260508141009 | 66 | 279 | 1.7 | 2.6 | 0.00 | 0.00 | 0.00 | 22 | 1019.7 |
| 20260508140546 | 65 | 252 | 2.6 | 2.6 | 0.00 | 0.00 | 0.00 | 23 | 1019.6 |
| 20260508140047 | 64 | 243 | 1.7 | 2.6 | 0.00 | 0.00 | 0.00 | 25 | 1019.4 |
| 20260508135546 | 63 | 277 | 1.7 | 2.6 | 0.00 | 0.00 | 0.00 | 25 | 1019.6 |
| 20260508135046 | 62 | 262 | 2.6 | 3.5 | 0.00 | 0.00 | 0.00 | 26 | 1019.4 |
| 20260508134546 | 61 | 224 | 3.5 | 4.3 | 0.00 | 0.00 | 0.00 | 24 | 1019.4 |
| 20260508132509 | 56 | 273 | 3.5 | 4.3 | 0.00 | 0.00 | 0.00 | 28 | 1019.0 |
| 20260508132009 | 56 | 261 | 5.2 | 6.1 | 0.00 | 0.00 | 0.00 | 26 | 1019.3 |
| 20260508131547 | 56 | 261 | 4.3 | 6.1 | 0.00 | 0.00 | 0.00 | 27 | 1019.0 |
| 20260508131009 | 56 | 253 | 3.5 | 5.2 | 0.00 | 0.00 | 0.00 | 26 | 1019.2 |
| 20260508130547 | 56 | 247 | 3.5 | 4.3 | 0.00 | 0.00 | 0.00 | 27 | 1018.9 |
| 20260508130046 | 56 | 247 | 2.6 | 3.5 | 0.00 | 0.00 | 0.00 | 26 | 1018.8 |
| 20260508125546 | 54 | 263 | 2.6 | 2.6 | 0.00 | 0.00 | 0.00 | 27 | 1018.8 |
| 20260508125047 | 54 | 260 | 1.7 | 3.5 | 0.00 | 0.00 | 0.00 | 27 | 1019.0 |
| 20260508124547 | 53 | 267 | 2.6 | 3.5 | 0.00 | 0.00 | 0.00 | 28 | 1018.7 |
| 20260508124047 | 52 | 267 | 2.6 | 3.5 | 0.00 | 0.00 | 0.00 | 30 | 1018.8 |
| 20260508123547 | 52 | 8 | 0.0 | 2.6 | 0.00 | 0.00 | 0.00 | 33 | 1018.9 |
| 20260508123008 | 50 | 275 | 1.7 | 2.6 | 0.00 | 0.00 | 0.00 | 33 | 1018.9 |
| 20260508122547 | 52 | 256 | 2.6 | 3.5 | 0.00 | 0.00 | 0.00 | 31 | 1018.9 |
| 20260508122047 | 52 | 249 | 0.0 | 1.7 | 0.00 | 0.00 | 0.00 | 29 | 1019.0 |
| 20260508121547 | 53 | 92 | 1.7 | 2.6 | 0.00 | 0.00 | 0.00 | 28 | 1018.8 |
| 20260508121047 | 54 | 80 | 2.6 | 2.6 | 0.00 | 0.00 | 0.00 | 27 | 1019.0 |
| 20260508120547 | 55 | 234 | 1.7 | 2.6 | 0.00 | 0.00 | 0.00 | 27 | 1018.8 |
| 20260508120008 | 56 | 236 | 1.7 | 2.6 | 0.00 | 0.00 | 0.00 | 26 | 1018.6 |
| 20260508115546 | 56 | 55 | 0.0 | 1.7 | 0.00 | 0.00 | 0.00 | 25 | 1018.6 |
| 20260508115047 | 58 | 54 | 1.7 | 1.7 | 0.00 | 0.00 | 0.00 | 23 | 1018.6 |
| 20260508114547 | 58 | 346 | 0.0 | 1.7 | 0.00 | 0.00 | 0.00 | 22 | 1018.8 |
| 20260508114009 | 59 | 299 | 2.6 | 2.6 | 0.00 | 0.00 | 0.00 | 22 | 1018.6 |
| 20260508113547 | 59 | 261 | 2.6 | 4.3 | 0.00 | 0.00 | 0.00 | 22 | 1018.7 |
| 20260508113008 | 59 | 271 | 3.5 | 4.3 | 0.00 | 0.00 | 0.00 | 22 | 1018.6 |
| 20260508112553 | 59 | 266 | 4.3 | 4.3 | 0.00 | 0.00 | 0.00 | 22 | 1018.5 |
| 20260508112047 | 59 | 274 | 4.3 | 5.2 | 0.00 | 0.00 | 0.00 | 22 | 1018.8 |
| 20260508111546 | 60 | 269 | 4.3 | 5.2 | 0.00 | 0.00 | 0.00 | 21 | 1018.6 |
| 20260508111008 | 60 | 266 | 5.2 | 7.0 | 0.00 | 0.00 | 0.00 | 20 | 1018.7 |
| 20260508110547 | 60 | 261 | 5.2 | 6.1 | 0.00 | 0.00 | 0.00 | 20 | 1018.5 |
| 20260508110047 | 61 | 262 | 5.2 | 6.1 | 0.00 | 0.00 | 0.00 | 20 | 1018.6 |
| 20260508105547 | 60 | 263 | 5.2 | 7.8 | 0.00 | 0.00 | 0.00 | 20 | 1018.7 |
| 20260508103526 | 60 | 256 | 4.3 | 5.2 | 0.00 | 0.00 | 0.00 | 22 | 1018.2 |
| 20260508103046 | 60 | 267 | 5.2 | 7.0 | 0.00 | 0.00 | 0.00 | 21 | 1018.6 |
| 20260508102547 | 60 | 258 | 4.3 | 7.0 | 0.00 | 0.00 | 0.00 | 21 | 1018.4 |
| 20260508102008 | 60 | 266 | 4.3 | 7.0 | 0.00 | 0.00 | 0.00 | 21 | 1018.4 |
| 20260508101546 | 60 | 267 | 3.5 | 5.2 | 0.00 | 0.00 | 0.00 | 22 | 1018.4 |
| 20260508101047 | 60 | 256 | 5.2 | 7.0 | 0.00 | 0.00 | 0.00 | 21 | 1018.6 |
| 20260508100547 | 60 | 257 | 5.2 | 6.1 | 0.00 | 0.00 | 0.00 | 22 | 1018.5 |
| 20260508100008 | 59 | 273 | 4.3 | 6.1 | 0.00 | 0.00 | 0.00 | 22 | 1018.5 |
| 20260508095547 | 59 | 266 | 3.5 | 7.0 | 0.00 | 0.00 | 0.00 | 22 | 1018.5 |
| 20260508095008 | 59 | 251 | 3.5 | 5.2 | 0.00 | 0.00 | 0.00 | 23 | 1018.5 |
| 20260508094546 | 60 | 260 | 4.3 | 7.0 | 0.00 | 0.00 | 0.00 | 22 | 1018.5 |
| 20260508094048 | 59 | 236 | 5.2 | 7.8 | 0.00 | 0.00 | 0.00 | 22 | 1018.5 |
| 20260508093546 | 59 | 254 | 5.2 | 6.1 | 0.00 | 0.00 | 0.00 | 22 | 1018.5 |
| 20260508093008 | 58 | 255 | 5.2 | 5.2 | 0.00 | 0.00 | 0.00 | 23 | 1018.5 |
| 20260508092547 | 56 | 263 | 4.3 | 4.3 | 0.00 | 0.00 | 0.00 | 24 | 1018.6 |
| 20260508092047 | 53 | 260 | 2.6 | 2.6 | 0.00 | 0.00 | 0.00 | 27 | 1018.5 |
| 20260508091510 | 54 | 277 | 2.6 | 3.5 | 0.00 | 0.00 | 0.00 | 27 | 1018.6 |
| 20260508091008 | 55 | 239 | 5.2 | 6.1 | 0.00 | 0.00 | 0.00 | 26 | 1018.6 |
| 20260508090547 | 54 | 252 | 1.7 | 3.5 | 0.00 | 0.00 | 0.00 | 27 | 1018.5 |
| 20260508090047 | 56 | 243 | 2.6 | 3.5 | 0.00 | 0.00 | 0.00 | 25 | 1018.6 |
| 20260508084008 | 60 | 292 | 1.7 | 3.5 | 0.00 | 0.00 | 0.00 | 22 | 1018.7 |
| 20260508083546 | 60 | 261 | 2.6 | 6.1 | 0.00 | 0.00 | 0.00 | 22 | 1018.8 |
| 20260508083047 | 60 | 257 | 4.3 | 7.0 | 0.00 | 0.00 | 0.00 | 22 | 1018.8 |
| 20260508082509 | 59 | 264 | 4.3 | 5.2 | 0.00 | 0.00 | 0.00 | 22 | 1018.9 |
| 20260508082009 | 60 | 262 | 3.5 | 6.1 | 0.00 | 0.00 | 0.00 | 22 | 1018.9 |
| 20260508081547 | 60 | 246 | 3.5 | 4.3 | 0.00 | 0.00 | 0.00 | 22 | 1018.9 |
| 20260508081009 | 60 | 251 | 3.5 | 4.3 | 0.00 | 0.00 | 0.00 | 22 | 1018.8 |
| 20260508080547 | 60 | 267 | 4.3 | 6.1 | 0.00 | 0.00 | 0.00 | 22 | 1018.7 |
| 20260508080047 | 61 | 244 | 6.1 | 7.0 | 0.00 | 0.00 | 0.00 | 22 | 1019.0 |
| 20260508075547 | 61 | 248 | 3.5 | 6.1 | 0.00 | 0.00 | 0.00 | 22 | 1019.0 |
| 20260508075009 | 61 | 258 | 5.2 | 7.0 | 0.00 | 0.00 | 0.00 | 22 | 1018.8 |
| 20260508073009 | 61 | 242 | 3.5 | 5.2 | 0.00 | 0.00 | 0.00 | 22 | 1019.2 |
| 20260508072547 | 60 | 279 | 3.5 | 4.3 | 0.00 | 0.00 | 0.00 | 23 | 1019.0 |
| 20260508072047 | 60 | 254 | 4.3 | 5.2 | 0.00 | 0.00 | 0.00 | 23 | 1019.0 |
| 20260508071547 | 60 | 259 | 3.5 | 6.1 | 0.00 | 0.00 | 0.00 | 23 | 1019.2 |
| 20260508071047 | 60 | 261 | 4.3 | 4.3 | 0.00 | 0.00 | 0.00 | 23 | 1019.0 |
| 20260508070511 | 60 | 253 | 2.6 | 4.3 | 0.00 | 0.00 | 0.00 | 22 | 1019.3 |
| 20260508070005 | 60 | 287 | 0.0 | 2.6 | 0.00 | 0.00 | 0.00 | 22 | 1019.2 |
| 20260508065547 | 60 | 73 | 0.0 | 2.6 | 0.00 | 0.00 | 0.00 | 22 | 1019.0 |
| 20260508065048 | 61 | 201 | 1.7 | 3.5 | 0.00 | 0.00 | 0.00 | 21 | 1019.2 |
| 20260508064509 | 61 | 173 | 1.7 | 3.5 | 0.00 | 0.00 | 0.00 | 21 | 1018.9 |
| 20260508064009 | 61 | 183 | 1.7 | 3.5 | 0.00 | 0.00 | 0.00 | 21 | 1018.9 |
| 20260508063547 | 62 | 131 | 0.0 | 5.2 | 0.00 | 0.00 | 0.00 | 20 | 1019.0 |
| 20260508063009 | 62 | 223 | 2.6 | 7.0 | 0.00 | 0.00 | 0.00 | 20 | 1018.8 |
| 20260508062547 | 62 | 160 | 1.7 | 2.6 | 0.00 | 0.00 | 0.00 | 20 | 1018.8 |
| 20260508062047 | 63 | 262 | 4.3 | 4.3 | 0.00 | 0.00 | 0.00 | 20 | 1019.0 |
| 20260508061547 | 63 | 240 | 1.7 | 10.4 | 0.00 | 0.00 | 0.00 | 20 | 1018.8 |
| 20260508061010 | 63 | 235 | 4.3 | 6.1 | 0.00 | 0.00 | 0.00 | 20 | 1018.7 |
| 20260508060547 | 64 | 238 | 4.3 | 7.8 | 0.00 | 0.00 | 0.00 | 19 | 1018.8 |
| 20260508060046 | 63 | 263 | 7.0 | 12.2 | 0.00 | 0.00 | 0.00 | 19 | 1018.7 |
| 20260508055547 | 63 | 261 | 7.0 | 9.6 | 0.00 | 0.00 | 0.00 | 19 | 1018.9 |
| 20260508055008 | 63 | 247 | 5.2 | 13.0 | 0.00 | 0.00 | 0.00 | 19 | 1018.7 |
| 20260508054547 | 63 | 264 | 5.2 | 8.7 | 0.00 | 0.00 | 0.00 | 19 | 1018.7 |
| 20260508054047 | 64 | 262 | 7.0 | 13.0 | 0.00 | 0.00 | 0.00 | 19 | 1018.8 |
| 20260508053547 | 64 | 256 | 6.1 | 9.6 | 0.00 | 0.00 | 0.00 | 19 | 1018.7 |
| 20260508053046 | 64 | 233 | 10.4 | 13.0 | 0.00 | 0.00 | 0.00 | 19 | 1018.9 |
| 20260508052547 | 64 | 261 | 7.0 | 10.4 | 0.00 | 0.00 | 0.00 | 19 | 1019.0 |
| 20260508052009 | 64 | 238 | 8.7 | 13.0 | 0.00 | 0.00 | 0.00 | 19 | 1018.9 |
| 20260508051547 | 64 | 266 | 9.6 | 12.2 | 0.00 | 0.00 | 0.00 | 19 | 1018.9 |
| 20260508051047 | 64 | 249 | 9.6 | 9.6 | 0.00 | 0.00 | 0.00 | 20 | 1018.9 |
| 20260508050509 | 64 | 283 | 5.2 | 8.7 | 0.00 | 0.00 | 0.00 | 20 | 1018.9 |
| 20260508050009 | 64 | 267 | 5.2 | 9.6 | 0.00 | 0.00 | 0.00 | 20 | 1019.0 |
| 20260508045547 | 65 | 265 | 6.1 | 10.4 | 0.00 | 0.00 | 0.00 | 20 | 1018.7 |
| 20260508045047 | 65 | 259 | 7.8 | 13.0 | 0.00 | 0.00 | 0.00 | 20 | 1018.9 |
| 20260508044547 | 65 | 208 | 7.8 | 13.0 | 0.00 | 0.00 | 0.00 | 20 | 1018.8 |
| 20260508044047 | 65 | 225 | 7.0 | 10.4 | 0.00 | 0.00 | 0.00 | 20 | 1018.7 |
| 20260508043547 | 65 | 275 | 10.4 | 13.0 | 0.00 | 0.00 | 0.00 | 20 | 1018.8 |
| 20260508043009 | 65 | 243 | 7.0 | 13.0 | 0.00 | 0.00 | 0.00 | 21 | 1018.8 |
| 20260508042547 | 65 | 240 | 5.2 | 13.0 | 0.00 | 0.00 | 0.00 | 21 | 1018.9 |
| 20260508042047 | 65 | 241 | 6.1 | 13.9 | 0.00 | 0.00 | 0.00 | 21 | 1018.9 |
| 20260508041510 | 65 | 243 | 10.4 | 12.2 | 0.00 | 0.00 | 0.00 | 21 | 1018.7 |
| 20260508041009 | 64 | 250 | 5.2 | 10.4 | 0.00 | 0.00 | 0.00 | 22 | 1018.8 |
| 20260508040546 | 65 | 246 | 7.8 | 12.2 | 0.00 | 0.00 | 0.00 | 21 | 1018.6 |
| 20260508040009 | 65 | 243 | 11.3 | 13.9 | 0.00 | 0.00 | 0.00 | 22 | 1018.8 |
| 20260508032509 | 65 | 255 | 3.5 | 10.4 | 0.00 | 0.00 | 0.00 | 22 | 1018.2 |
| 20260508032009 | 65 | 277 | 7.8 | 10.4 | 0.00 | 0.00 | 0.00 | 22 | 1018.2 |
| 20260508031547 | 65 | 266 | 5.2 | 8.7 | 0.00 | 0.00 | 0.00 | 22 | 1018.3 |
| 20260508031009 | 66 | 249 | 4.3 | 7.8 | 0.00 | 0.00 | 0.00 | 22 | 1018.1 |
| 20260508030547 | 66 | 245 | 7.8 | 8.7 | 0.00 | 0.00 | 0.00 | 22 | 1018.2 |
| 20260508030047 | 66 | 248 | 5.2 | 9.6 | 0.00 | 0.00 | 0.00 | 21 | 1018.0 |
| 20260508025546 | 66 | 237 | 8.7 | 9.6 | 0.00 | 0.00 | 0.00 | 21 | 1018.0 |
| 20260508025027 | 66 | 255 | 6.1 | 8.7 | 0.00 | 0.00 | 0.00 | 21 | 1018.1 |
| 20260508024547 | 67 | 249 | 6.1 | 9.6 | 0.00 | 0.00 | 0.00 | 21 | 1017.9 |
| 20260508024047 | 67 | 252 | 8.7 | 13.0 | 0.00 | 0.00 | 0.00 | 20 | 1017.9 |
| 20260508023547 | 68 | 264 | 4.3 | 10.4 | 0.00 | 0.00 | 0.00 | 20 | 1017.9 |
| 20260508023009 | 68 | 276 | 9.6 | 15.6 | 0.00 | 0.00 | 0.00 | 20 | 1017.7 |
| 20260508022546 | 68 | 258 | 13.9 | 14.8 | 0.00 | 0.00 | 0.00 | 20 | 1017.7 |
| 20260508022048 | 68 | 265 | 7.8 | 13.9 | 0.00 | 0.00 | 0.00 | 20 | 1017.6 |
| 20260508021546 | 69 | 254 | 6.1 | 12.2 | 0.00 | 0.00 | 0.00 | 20 | 1017.7 |
| 20260508021046 | 69 | 264 | 4.3 | 13.0 | 0.00 | 0.00 | 0.00 | 19 | 1017.7 |
| 20260508020546 | 70 | 272 | 6.1 | 8.7 | 0.00 | 0.00 | 0.00 | 19 | 1017.6 |
| 20260508020009 | 70 | 257 | 8.7 | 8.7 | 0.00 | 0.00 | 0.00 | 19 | 1017.4 |
| 20260508015547 | 71 | 266 | 4.3 | 14.8 | 0.00 | 0.00 | 0.00 | 18 | 1017.6 |
| 20260508015047 | 72 | 264 | 4.3 | 6.1 | 0.00 | 0.00 | 0.00 | 18 | 1017.3 |
| 20260508013008 | 73 | 267 | 6.1 | 7.8 | 0.00 | 0.00 | 0.00 | 18 | 1017.3 |
| 20260508012547 | 74 | 281 | 4.3 | 11.3 | 0.00 | 0.00 | 0.00 | 18 | 1017.4 |
| 20260508012047 | 74 | 269 | 7.8 | 9.6 | 0.00 | 0.00 | 0.00 | 17 | 1017.2 |
| 20260508011547 | 74 | 260 | 7.8 | 8.7 | 0.00 | 0.00 | 0.00 | 16 | 1017.2 |
| 20260508011009 | 74 | 241 | 8.7 | 9.6 | 0.00 | 0.00 | 0.00 | 16 | 1017.3 |
| 20260508010546 | 75 | 292 | 5.2 | 10.4 | 0.00 | 0.00 | 0.00 | 16 | 1017.2 |
| 20260508010046 | 75 | 327 | 7.0 | 7.8 | 0.00 | 0.00 | 0.00 | 16 | 1017.2 |
| 20260508005547 | 75 | 296 | 6.1 | 7.0 | 0.00 | 0.00 | 0.00 | 15 | 1017.2 |
| 20260508005009 | 75 | 61 | 4.3 | 7.8 | 0.00 | 0.00 | 0.00 | 11 | 1016.8 |
| 20260508004546 | 77 | 17 | 4.3 | 6.1 | 0.00 | 0.00 | 0.00 | 11 | 1017.1 |
| 20260508004047 | 77 | 34 | 2.6 | 6.1 | 0.00 | 0.00 | 0.00 | 11 | 1017.1 |
| 20260508003546 | 77 | 249 | 1.7 | 3.5 | 0.00 | 0.00 | 0.00 | 11 | 1017.3 |
| 20260508003046 | 76 | 44 | 0.0 | 5.2 | 0.00 | 0.00 | 0.00 | 11 | 1017.1 |
| 20260508002547 | 76 | 31 | 3.5 | 5.2 | 0.00 | 0.00 | 0.00 | 11 | 1017.1 |
| 20260508002009 | 76 | 54 | 6.1 | 9.6 | 0.00 | 0.00 | 0.00 | 10 | 1017.1 |
| 20260508001547 | 77 | 6 | 7.0 | 10.4 | 0.00 | 0.00 | 0.00 | 11 | 1017.2 |
| 20260508001047 | 76 | 359 | 2.6 | 5.2 | 0.00 | 0.00 | 0.00 | 11 | 1017.3 |
| 20260508000509 | 76 | 320 | 1.7 | 5.2 | 0.00 | 0.00 | 0.00 | 11 | 1017.3 |
| 20260508000009 | 77 | 260 | 8.7 | 10.4 | 0.00 | 0.00 | 0.00 | 10 | 1017.3 |
| 20260507235547 | 79 | 286 | 3.5 | 4.3 | 0.00 | 0.00 | 0.00 | 10 | 1017.3 |
| 20260507235047 | 79 | 283 | 1.7 | 3.5 | 0.00 | 0.00 | 0.00 | 10 | 1017.4 |
| 20260507234547 | 77 | 251 | 5.2 | 7.0 | 0.00 | 0.00 | 0.00 | 10 | 1017.4 |
| 20260507234047 | 79 | 300 | 11.3 | 11.3 | 0.00 | 0.00 | 0.00 | 10 | 1017.4 |
| 20260507233547 | 75 | 28 | 2.6 | 8.7 | 0.00 | 0.00 | 0.00 | 11 | 1017.5 |
| 20260507233009 | 76 | 306 | 11.3 | 13.0 | 0.00 | 0.00 | 0.00 | 11 | 1017.4 |
| 20260507232547 | 77 | 34 | 3.5 | 7.8 | 0.00 | 0.00 | 0.00 | 11 | 1017.6 |
| 20260507232046 | 77 | 31 | 1.7 | 7.0 | 0.00 | 0.00 | 0.00 | 12 | 1017.5 |
| 20260507231510 | 77 | 21 | 4.3 | 11.3 | 0.00 | 0.00 | 0.00 | 12 | 1017.4 |
| 20260507231009 | 78 | 320 | 4.3 | 4.3 | 0.00 | 0.00 | 0.00 | 11 | 1017.4 |
| 20260507230547 | 78 | 100 | 3.5 | 4.3 | 0.00 | 0.00 | 0.00 | 10 | 1017.4 |
| 20260507230010 | 75 | 305 | 8.7 | 13.0 | 0.00 | 0.00 | 0.00 | 11 | 1017.6 |
| 20260507225547 | 77 | 325 | 4.3 | 9.6 | 0.00 | 0.00 | 0.00 | 12 | 1017.5 |
| 20260507225047 | 77 | 335 | 6.1 | 6.1 | 0.00 | 0.00 | 0.00 | 11 | 1017.5 |
| 20260507224547 | 75 | 304 | 9.6 | 11.3 | 0.00 | 0.00 | 0.00 | 12 | 1017.7 |
| 20260507222509 | 76 | 289 | 1.7 | 5.2 | 0.00 | 0.00 | 0.00 | 12 | 1017.8 |
| 20260507222009 | 76 | 103 | 2.6 | 5.2 | 0.00 | 0.00 | 0.00 | 11 | 1017.7 |
| 20260507221547 | 77 | 113 | 1.7 | 7.8 | 0.00 | 0.00 | 0.00 | 12 | 1017.8 |
| 20260507221010 | 75 | 66 | 7.8 | 11.3 | 0.00 | 0.00 | 0.00 | 11 | 1017.9 |
| 20260507220547 | 75 | 75 | 5.2 | 5.2 | 0.00 | 0.00 | 0.00 | 11 | 1017.9 |
| 20260507220047 | 76 | 102 | 2.6 | 8.7 | 0.00 | 0.00 | 0.00 | 12 | 1018.0 |
| 20260507215546 | 76 | 69 | 11.3 | 12.2 | 0.00 | 0.00 | 0.00 | 11 | 1018.0 |
| 20260507215010 | 77 | 52 | 9.6 | 9.6 | 0.00 | 0.00 | 0.00 | 11 | 1017.9 |
| 20260507214546 | 77 | 89 | 3.5 | 9.6 | 0.00 | 0.00 | 0.00 | 10 | 1018.0 |
| 20260507214047 | 76 | 65 | 10.4 | 11.3 | 0.00 | 0.00 | 0.00 | 10 | 1018.1 |
| 20260507213546 | 75 | 46 | 2.6 | 7.0 | 0.00 | 0.00 | 0.00 | 11 | 1018.2 |
| 20260507211547 | 75 | 60 | 7.0 | 12.2 | 0.00 | 0.00 | 0.00 | 11 | 1018.4 |
| 20260507211047 | 76 | 344 | 4.3 | 10.4 | 0.00 | 0.00 | 0.00 | 11 | 1018.6 |
| 20260507210547 | 76 | 334 | 2.6 | 3.5 | 0.00 | 0.00 | 0.00 | 10 | 1018.6 |
| 20260507204009 | 74 | 14 | 2.6 | 7.8 | 0.00 | 0.00 | 0.00 | 13 | 1018.8 |
| 20260507203547 | 74 | 276 | 2.6 | 4.3 | 0.00 | 0.00 | 0.00 | 12 | 1018.8 |
| 20260507203009 | 74 | 176 | 2.6 | 5.2 | 0.00 | 0.00 | 0.00 | 14 | 1019.0 |
| 20260507202547 | 72 | 258 | 4.3 | 11.3 | 0.00 | 0.00 | 0.00 | 14 | 1019.0 |
| 20260507202047 | 72 | 292 | 5.2 | 8.7 | 0.00 | 0.00 | 0.00 | 14 | 1019.0 |
| 20260507201547 | 73 | 356 | 2.6 | 8.7 | 0.00 | 0.00 | 0.00 | 10 | 1019.2 |
| 20260507201047 | 73 | 321 | 2.6 | 5.2 | 0.00 | 0.00 | 0.00 | 14 | 1019.2 |
| 20260507200547 | 73 | 37 | 6.1 | 9.6 | 0.00 | 0.00 | 0.00 | 14 | 1019.2 |